sensor_id;sensor_type;location;lat;lon;timestamp;P1;durP1;ratioP1;P2;durP2;ratioP2
39994;SDS011;25686;51.908;10.418;2024-02-16T00:00:30;3.70;;;0.95;;
39994;SDS011;25686;51.908;10.418;2024-02-16T00:02:31;2.85;;;1.15;;
39994;SDS011;25686;51.908;10.418;2024-02-16T00:04:32;2.40;;;0.85;;
39994;SDS011;25686;51.908;10.418;2024-02-16T00:06:34;2.85;;;1.00;;
39994;SDS011;25686;51.908;10.418;2024-02-16T00:08:34;2.35;;;0.90;;
39994;SDS011;25686;51.908;10.418;2024-02-16T00:10:38;2.03;;;0.98;;
39994;SDS011;25686;51.908;10.418;2024-02-16T00:12:39;2.30;;;1.10;;
39994;SDS011;25686;51.908;10.418;2024-02-16T00:14:40;3.15;;;0.88;;
39994;SDS011;25686;51.908;10.418;2024-02-16T00:16:41;3.45;;;1.00;;
39994;SDS011;25686;51.908;10.418;2024-02-16T00:18:42;2.40;;;0.93;;
39994;SDS011;25686;51.908;10.418;2024-02-16T00:20:43;2.15;;;0.85;;
39994;SDS011;25686;51.908;10.418;2024-02-16T00:22:44;3.13;;;1.05;;
39994;SDS011;25686;51.908;10.418;2024-02-16T00:24:45;2.28;;;0.95;;
39994;SDS011;25686;51.908;10.418;2024-02-16T00:26:46;2.78;;;1.08;;
39994;SDS011;25686;51.908;10.418;2024-02-16T00:28:47;1.90;;;0.85;;
39994;SDS011;25686;51.908;10.418;2024-02-16T00:30:48;4.20;;;1.08;;
39994;SDS011;25686;51.908;10.418;2024-02-16T00:32:49;2.33;;;0.98;;
39994;SDS011;25686;51.908;10.418;2024-02-16T00:34:50;4.28;;;1.10;;
39994;SDS011;25686;51.908;10.418;2024-02-16T00:36:53;2.97;;;1.20;;
39994;SDS011;25686;51.908;10.418;2024-02-16T00:38:55;3.72;;;1.00;;
39994;SDS011;25686;51.908;10.418;2024-02-16T00:40:57;4.95;;;1.10;;
39994;SDS011;25686;51.908;10.418;2024-02-16T00:42:58;3.08;;;0.90;;
39994;SDS011;25686;51.908;10.418;2024-02-16T00:44:59;4.80;;;0.93;;
39994;SDS011;25686;51.908;10.418;2024-02-16T00:47:00;3.47;;;1.00;;
39994;SDS011;25686;51.908;10.418;2024-02-16T00:49:01;2.03;;;0.98;;
39994;SDS011;25686;51.908;10.418;2024-02-16T00:51:02;2.30;;;0.80;;
39994;SDS011;25686;51.908;10.418;2024-02-16T00:53:03;3.67;;;0.90;;
39994;SDS011;25686;51.908;10.418;2024-02-16T00:55:04;5.93;;;1.08;;
39994;SDS011;25686;51.908;10.418;2024-02-16T00:57:05;3.45;;;0.85;;
39994;SDS011;25686;51.908;10.418;2024-02-16T00:59:06;2.20;;;0.90;;
39994;SDS011;25686;51.908;10.418;2024-02-16T01:01:09;3.17;;;0.98;;
39994;SDS011;25686;51.908;10.418;2024-02-16T01:03:12;1.95;;;0.90;;
39994;SDS011;25686;51.908;10.418;2024-02-16T01:05:13;2.67;;;0.93;;
39994;SDS011;25686;51.908;10.418;2024-02-16T01:07:17;2.40;;;0.80;;
39994;SDS011;25686;51.908;10.418;2024-02-16T01:09:18;3.70;;;1.13;;
39994;SDS011;25686;51.908;10.418;2024-02-16T01:11:19;2.67;;;0.70;;
39994;SDS011;25686;51.908;10.418;2024-02-16T01:13:20;4.00;;;1.00;;
39994;SDS011;25686;51.908;10.418;2024-02-16T01:15:21;2.28;;;0.80;;
39994;SDS011;25686;51.908;10.418;2024-02-16T01:17:22;3.83;;;0.85;;
39994;SDS011;25686;51.908;10.418;2024-02-16T01:19:23;2.15;;;0.90;;
39994;SDS011;25686;51.908;10.418;2024-02-16T01:21:24;1.63;;;1.02;;
39994;SDS011;25686;51.908;10.418;2024-02-16T01:23:25;2.92;;;0.82;;
39994;SDS011;25686;51.908;10.418;2024-02-16T01:25:26;2.30;;;0.90;;
39994;SDS011;25686;51.908;10.418;2024-02-16T01:27:27;2.80;;;0.73;;
39994;SDS011;25686;51.908;10.418;2024-02-16T01:29:28;2.53;;;1.02;;
39994;SDS011;25686;51.908;10.418;2024-02-16T01:31:29;2.55;;;0.90;;
39994;SDS011;25686;51.908;10.418;2024-02-16T01:33:30;4.43;;;0.82;;
39994;SDS011;25686;51.908;10.418;2024-02-16T01:35:34;3.60;;;1.05;;
39994;SDS011;25686;51.908;10.418;2024-02-16T01:37:35;2.47;;;1.00;;
39994;SDS011;25686;51.908;10.418;2024-02-16T01:39:36;1.77;;;0.93;;
39994;SDS011;25686;51.908;10.418;2024-02-16T01:41:40;2.70;;;0.90;;
39994;SDS011;25686;51.908;10.418;2024-02-16T01:43:41;2.35;;;0.98;;
39994;SDS011;25686;51.908;10.418;2024-02-16T01:45:42;1.45;;;0.90;;
39994;SDS011;25686;51.908;10.418;2024-02-16T01:47:43;0.88;;;0.70;;
39994;SDS011;25686;51.908;10.418;2024-02-16T01:49:46;1.92;;;0.98;;
39994;SDS011;25686;51.908;10.418;2024-02-16T01:51:47;3.92;;;0.90;;
39994;SDS011;25686;51.908;10.418;2024-02-16T01:53:48;2.78;;;1.00;;
39994;SDS011;25686;51.908;10.418;2024-02-16T01:55:49;2.47;;;1.00;;
39994;SDS011;25686;51.908;10.418;2024-02-16T01:57:51;3.83;;;1.10;;
39994;SDS011;25686;51.908;10.418;2024-02-16T01:59:52;5.13;;;0.90;;
39994;SDS011;25686;51.908;10.418;2024-02-16T02:01:53;4.90;;;1.05;;
39994;SDS011;25686;51.908;10.418;2024-02-16T02:03:54;4.55;;;1.02;;
39994;SDS011;25686;51.908;10.418;2024-02-16T02:05:55;1.45;;;0.85;;
39994;SDS011;25686;51.908;10.418;2024-02-16T02:07:56;3.75;;;1.00;;
39994;SDS011;25686;51.908;10.418;2024-02-16T02:09:57;5.30;;;1.13;;
39994;SDS011;25686;51.908;10.418;2024-02-16T02:11:58;2.50;;;0.98;;
39994;SDS011;25686;51.908;10.418;2024-02-16T02:13:59;3.70;;;1.20;;
39994;SDS011;25686;51.908;10.418;2024-02-16T02:16:00;1.73;;;1.02;;
39994;SDS011;25686;51.908;10.418;2024-02-16T02:18:01;3.42;;;0.93;;
39994;SDS011;25686;51.908;10.418;2024-02-16T02:20:02;2.85;;;1.00;;
39994;SDS011;25686;51.908;10.418;2024-02-16T02:22:04;2.33;;;1.25;;
39994;SDS011;25686;51.908;10.418;2024-02-16T02:24:05;2.70;;;1.20;;
39994;SDS011;25686;51.908;10.418;2024-02-16T02:26:06;3.83;;;0.95;;
39994;SDS011;25686;51.908;10.418;2024-02-16T02:28:07;4.55;;;1.02;;
39994;SDS011;25686;51.908;10.418;2024-02-16T02:30:08;3.65;;;1.10;;
39994;SDS011;25686;51.908;10.418;2024-02-16T02:32:09;3.33;;;1.25;;
39994;SDS011;25686;51.908;10.418;2024-02-16T02:34:10;2.03;;;1.10;;
39994;SDS011;25686;51.908;10.418;2024-02-16T02:36:11;2.35;;;1.08;;
39994;SDS011;25686;51.908;10.418;2024-02-16T02:38:12;2.17;;;1.08;;
39994;SDS011;25686;51.908;10.418;2024-02-16T02:40:13;2.53;;;1.23;;
39994;SDS011;25686;51.908;10.418;2024-02-16T02:42:14;2.80;;;0.98;;
39994;SDS011;25686;51.908;10.418;2024-02-16T02:44:15;2.15;;;0.90;;
39994;SDS011;25686;51.908;10.418;2024-02-16T02:46:16;1.75;;;1.00;;
39994;SDS011;25686;51.908;10.418;2024-02-16T02:48:17;2.70;;;1.25;;
39994;SDS011;25686;51.908;10.418;2024-02-16T02:50:18;1.52;;;1.20;;
39994;SDS011;25686;51.908;10.418;2024-02-16T02:52:20;2.45;;;1.13;;
39994;SDS011;25686;51.908;10.418;2024-02-16T02:54:21;4.07;;;1.20;;
39994;SDS011;25686;51.908;10.418;2024-02-16T02:56:22;2.42;;;1.30;;
39994;SDS011;25686;51.908;10.418;2024-02-16T02:58:23;1.63;;;1.00;;
39994;SDS011;25686;51.908;10.418;2024-02-16T03:00:24;4.55;;;1.45;;
39994;SDS011;25686;51.908;10.418;2024-02-16T03:02:25;4.93;;;1.35;;
39994;SDS011;25686;51.908;10.418;2024-02-16T03:04:26;3.42;;;1.17;;
39994;SDS011;25686;51.908;10.418;2024-02-16T03:06:27;4.63;;;1.00;;
39994;SDS011;25686;51.908;10.418;2024-02-16T03:08:28;2.85;;;1.23;;
39994;SDS011;25686;51.908;10.418;2024-02-16T03:10:29;4.13;;;1.30;;
39994;SDS011;25686;51.908;10.418;2024-02-16T03:12:34;2.45;;;1.25;;
39994;SDS011;25686;51.908;10.418;2024-02-16T03:14:36;5.55;;;1.35;;
39994;SDS011;25686;51.908;10.418;2024-02-16T03:16:37;2.42;;;1.00;;
39994;SDS011;25686;51.908;10.418;2024-02-16T03:18:38;3.05;;;1.25;;
39994;SDS011;25686;51.908;10.418;2024-02-16T03:20:39;5.22;;;1.23;;
39994;SDS011;25686;51.908;10.418;2024-02-16T03:22:40;3.33;;;1.30;;
39994;SDS011;25686;51.908;10.418;2024-02-16T03:24:41;4.53;;;1.30;;
39994;SDS011;25686;51.908;10.418;2024-02-16T03:26:42;2.45;;;1.05;;
39994;SDS011;25686;51.908;10.418;2024-02-16T03:28:47;5.25;;;1.60;;
39994;SDS011;25686;51.908;10.418;2024-02-16T03:30:48;6.13;;;1.00;;
39994;SDS011;25686;51.908;10.418;2024-02-16T03:32:49;4.15;;;1.10;;
39994;SDS011;25686;51.908;10.418;2024-02-16T03:34:50;1.88;;;1.27;;
39994;SDS011;25686;51.908;10.418;2024-02-16T03:36:51;2.25;;;1.25;;
39994;SDS011;25686;51.908;10.418;2024-02-16T03:38:52;2.80;;;1.20;;
39994;SDS011;25686;51.908;10.418;2024-02-16T03:40:53;4.30;;;1.25;;
39994;SDS011;25686;51.908;10.418;2024-02-16T03:42:54;1.67;;;1.17;;
39994;SDS011;25686;51.908;10.418;2024-02-16T03:44:55;4.20;;;1.38;;
39994;SDS011;25686;51.908;10.418;2024-02-16T03:46:56;1.67;;;0.98;;
39994;SDS011;25686;51.908;10.418;2024-02-16T03:48:57;3.13;;;1.30;;
39994;SDS011;25686;51.908;10.418;2024-02-16T03:50:58;2.97;;;1.27;;
39994;SDS011;25686;51.908;10.418;2024-02-16T03:52:59;1.58;;;1.20;;
39994;SDS011;25686;51.908;10.418;2024-02-16T03:55:00;4.15;;;1.40;;
39994;SDS011;25686;51.908;10.418;2024-02-16T03:57:01;3.17;;;1.17;;
39994;SDS011;25686;51.908;10.418;2024-02-16T03:59:04;2.53;;;1.20;;
39994;SDS011;25686;51.908;10.418;2024-02-16T04:01:05;3.13;;;0.98;;
39994;SDS011;25686;51.908;10.418;2024-02-16T04:03:06;5.28;;;1.40;;
39994;SDS011;25686;51.908;10.418;2024-02-16T04:05:09;2.90;;;1.40;;
39994;SDS011;25686;51.908;10.418;2024-02-16T04:07:10;2.42;;;1.30;;
39994;SDS011;25686;51.908;10.418;2024-02-16T04:09:11;4.45;;;1.38;;
39994;SDS011;25686;51.908;10.418;2024-02-16T04:11:12;3.28;;;1.30;;
39994;SDS011;25686;51.908;10.418;2024-02-16T04:13:15;4.35;;;1.60;;
39994;SDS011;25686;51.908;10.418;2024-02-16T04:15:16;3.20;;;1.48;;
39994;SDS011;25686;51.908;10.418;2024-02-16T04:17:17;3.10;;;1.30;;
39994;SDS011;25686;51.908;10.418;2024-02-16T04:19:18;5.20;;;1.50;;
39994;SDS011;25686;51.908;10.418;2024-02-16T04:21:19;2.55;;;1.35;;
39994;SDS011;25686;51.908;10.418;2024-02-16T04:23:20;5.22;;;1.40;;
39994;SDS011;25686;51.908;10.418;2024-02-16T04:25:21;2.42;;;1.20;;
39994;SDS011;25686;51.908;10.418;2024-02-16T04:27:23;3.75;;;1.40;;
39994;SDS011;25686;51.908;10.418;2024-02-16T04:29:24;2.92;;;1.30;;
39994;SDS011;25686;51.908;10.418;2024-02-16T04:31:25;3.75;;;1.20;;
39994;SDS011;25686;51.908;10.418;2024-02-16T04:33:26;1.73;;;1.40;;
39994;SDS011;25686;51.908;10.418;2024-02-16T04:35:27;4.78;;;1.60;;
39994;SDS011;25686;51.908;10.418;2024-02-16T04:37:28;3.22;;;1.30;;
39994;SDS011;25686;51.908;10.418;2024-02-16T04:39:29;5.45;;;1.30;;
39994;SDS011;25686;51.908;10.418;2024-02-16T04:41:29;2.13;;;1.30;;
39994;SDS011;25686;51.908;10.418;2024-02-16T04:43:30;2.00;;;1.23;;
39994;SDS011;25686;51.908;10.418;2024-02-16T04:45:31;2.65;;;1.55;;
39994;SDS011;25686;51.908;10.418;2024-02-16T04:47:32;3.90;;;1.40;;
39994;SDS011;25686;51.908;10.418;2024-02-16T04:49:33;3.05;;;1.60;;
39994;SDS011;25686;51.908;10.418;2024-02-16T04:51:34;1.98;;;1.17;;
39994;SDS011;25686;51.908;10.418;2024-02-16T04:53:39;2.47;;;1.45;;
39994;SDS011;25686;51.908;10.418;2024-02-16T04:55:40;2.08;;;1.20;;
39994;SDS011;25686;51.908;10.418;2024-02-16T04:57:41;3.60;;;1.50;;
39994;SDS011;25686;51.908;10.418;2024-02-16T04:59:42;3.20;;;1.65;;
39994;SDS011;25686;51.908;10.418;2024-02-16T05:01:43;3.22;;;1.45;;
39994;SDS011;25686;51.908;10.418;2024-02-16T05:03:47;2.20;;;1.40;;
39994;SDS011;25686;51.908;10.418;2024-02-16T05:05:48;4.95;;;1.35;;
39994;SDS011;25686;51.908;10.418;2024-02-16T05:07:50;1.85;;;1.27;;
39994;SDS011;25686;51.908;10.418;2024-02-16T05:09:51;4.10;;;1.40;;
39994;SDS011;25686;51.908;10.418;2024-02-16T05:11:55;3.47;;;1.58;;
39994;SDS011;25686;51.908;10.418;2024-02-16T05:13:56;3.30;;;1.63;;
39994;SDS011;25686;51.908;10.418;2024-02-16T05:15:58;4.07;;;1.38;;
39994;SDS011;25686;51.908;10.418;2024-02-16T05:17:59;3.03;;;1.60;;
39994;SDS011;25686;51.908;10.418;2024-02-16T05:20:00;5.57;;;2.33;;
39994;SDS011;25686;51.908;10.418;2024-02-16T05:22:00;3.42;;;1.40;;
39994;SDS011;25686;51.908;10.418;2024-02-16T05:24:02;4.25;;;1.58;;
39994;SDS011;25686;51.908;10.418;2024-02-16T05:26:03;2.65;;;1.70;;
39994;SDS011;25686;51.908;10.418;2024-02-16T05:28:04;4.57;;;1.80;;
39994;SDS011;25686;51.908;10.418;2024-02-16T05:30:05;4.35;;;1.55;;
39994;SDS011;25686;51.908;10.418;2024-02-16T05:32:08;5.32;;;1.63;;
39994;SDS011;25686;51.908;10.418;2024-02-16T05:34:10;3.60;;;1.55;;
39994;SDS011;25686;51.908;10.418;2024-02-16T05:36:11;6.13;;;2.13;;
39994;SDS011;25686;51.908;10.418;2024-02-16T05:38:12;3.20;;;1.52;;
39994;SDS011;25686;51.908;10.418;2024-02-16T05:40:31;4.85;;;1.70;;
39994;SDS011;25686;51.908;10.418;2024-02-16T05:42:44;5.82;;;2.00;;
39994;SDS011;25686;51.908;10.418;2024-02-16T05:44:45;3.83;;;1.92;;
39994;SDS011;25686;51.908;10.418;2024-02-16T05:46:46;2.00;;;1.67;;
39994;SDS011;25686;51.908;10.418;2024-02-16T05:48:47;2.45;;;1.50;;
39994;SDS011;25686;51.908;10.418;2024-02-16T05:50:49;3.20;;;1.75;;
39994;SDS011;25686;51.908;10.418;2024-02-16T05:52:50;4.30;;;2.00;;
39994;SDS011;25686;51.908;10.418;2024-02-16T05:54:51;3.42;;;2.00;;
39994;SDS011;25686;51.908;10.418;2024-02-16T05:56:53;4.75;;;1.95;;
39994;SDS011;25686;51.908;10.418;2024-02-16T05:58:54;3.50;;;1.80;;
39994;SDS011;25686;51.908;10.418;2024-02-16T06:00:55;5.13;;;1.80;;
39994;SDS011;25686;51.908;10.418;2024-02-16T06:02:55;5.05;;;2.00;;
39994;SDS011;25686;51.908;10.418;2024-02-16T06:04:56;4.03;;;1.75;;
39994;SDS011;25686;51.908;10.418;2024-02-16T06:06:57;7.22;;;2.13;;
39994;SDS011;25686;51.908;10.418;2024-02-16T06:08:59;3.58;;;1.65;;
39994;SDS011;25686;51.908;10.418;2024-02-16T06:11:00;2.90;;;1.85;;
39994;SDS011;25686;51.908;10.418;2024-02-16T06:13:02;3.92;;;1.88;;
39994;SDS011;25686;51.908;10.418;2024-02-16T06:15:03;7.60;;;2.00;;
39994;SDS011;25686;51.908;10.418;2024-02-16T06:17:04;3.80;;;1.80;;
39994;SDS011;25686;51.908;10.418;2024-02-16T06:19:05;5.05;;;2.15;;
39994;SDS011;25686;51.908;10.418;2024-02-16T06:21:08;3.28;;;1.80;;
39994;SDS011;25686;51.908;10.418;2024-02-16T06:23:09;3.97;;;2.03;;
39994;SDS011;25686;51.908;10.418;2024-02-16T06:25:10;4.38;;;2.10;;
39994;SDS011;25686;51.908;10.418;2024-02-16T06:27:11;4.97;;;2.22;;
39994;SDS011;25686;51.908;10.418;2024-02-16T06:29:12;6.85;;;2.40;;
39994;SDS011;25686;51.908;10.418;2024-02-16T06:31:13;4.75;;;2.00;;
39994;SDS011;25686;51.908;10.418;2024-02-16T06:33:14;4.30;;;2.08;;
39994;SDS011;25686;51.908;10.418;2024-02-16T06:35:15;4.68;;;1.92;;
39994;SDS011;25686;51.908;10.418;2024-02-16T06:37:16;6.28;;;2.47;;
39994;SDS011;25686;51.908;10.418;2024-02-16T06:39:17;4.50;;;1.75;;
39994;SDS011;25686;51.908;10.418;2024-02-16T06:41:18;3.45;;;2.00;;
39994;SDS011;25686;51.908;10.418;2024-02-16T06:43:19;5.82;;;2.05;;
39994;SDS011;25686;51.908;10.418;2024-02-16T06:45:20;3.90;;;2.05;;
39994;SDS011;25686;51.908;10.418;2024-02-16T06:47:21;5.55;;;1.98;;
39994;SDS011;25686;51.908;10.418;2024-02-16T06:49:25;6.40;;;1.98;;
39994;SDS011;25686;51.908;10.418;2024-02-16T06:51:26;2.92;;;2.00;;
39994;SDS011;25686;51.908;10.418;2024-02-16T06:53:28;4.82;;;1.85;;
39994;SDS011;25686;51.908;10.418;2024-02-16T06:55:29;6.18;;;1.90;;
39994;SDS011;25686;51.908;10.418;2024-02-16T06:57:30;5.95;;;2.08;;
39994;SDS011;25686;51.908;10.418;2024-02-16T06:59:31;3.25;;;1.90;;
39994;SDS011;25686;51.908;10.418;2024-02-16T07:01:32;5.93;;;2.13;;
39994;SDS011;25686;51.908;10.418;2024-02-16T07:03:33;5.63;;;1.85;;
39994;SDS011;25686;51.908;10.418;2024-02-16T07:05:36;3.90;;;1.80;;
39994;SDS011;25686;51.908;10.418;2024-02-16T07:07:37;4.07;;;1.98;;
39994;SDS011;25686;51.908;10.418;2024-02-16T07:09:38;3.97;;;1.75;;
39994;SDS011;25686;51.908;10.418;2024-02-16T07:11:39;4.38;;;2.10;;
39994;SDS011;25686;51.908;10.418;2024-02-16T07:13:40;3.58;;;2.08;;
39994;SDS011;25686;51.908;10.418;2024-02-16T07:15:42;5.35;;;1.80;;
39994;SDS011;25686;51.908;10.418;2024-02-16T07:17:43;4.55;;;1.98;;
39994;SDS011;25686;51.908;10.418;2024-02-16T07:19:44;3.85;;;2.15;;
39994;SDS011;25686;51.908;10.418;2024-02-16T07:21:45;2.92;;;1.67;;
39994;SDS011;25686;51.908;10.418;2024-02-16T07:23:46;4.00;;;1.90;;
39994;SDS011;25686;51.908;10.418;2024-02-16T07:25:48;6.75;;;1.60;;
39994;SDS011;25686;51.908;10.418;2024-02-16T07:27:49;3.35;;;1.92;;
39994;SDS011;25686;51.908;10.418;2024-02-16T07:29:50;2.70;;;1.88;;
39994;SDS011;25686;51.908;10.418;2024-02-16T07:31:51;5.85;;;2.08;;
39994;SDS011;25686;51.908;10.418;2024-02-16T07:33:52;3.05;;;1.70;;
39994;SDS011;25686;51.908;10.418;2024-02-16T07:35:53;3.53;;;1.85;;
39994;SDS011;25686;51.908;10.418;2024-02-16T07:37:55;3.83;;;1.80;;
39994;SDS011;25686;51.908;10.418;2024-02-16T07:39:56;4.85;;;1.70;;
39994;SDS011;25686;51.908;10.418;2024-02-16T07:41:56;6.90;;;1.95;;
39994;SDS011;25686;51.908;10.418;2024-02-16T07:43:58;3.20;;;1.67;;
39994;SDS011;25686;51.908;10.418;2024-02-16T07:45:58;6.07;;;1.60;;
39994;SDS011;25686;51.908;10.418;2024-02-16T07:47:59;2.53;;;1.80;;
39994;SDS011;25686;51.908;10.418;2024-02-16T07:50:04;5.55;;;1.92;;
39994;SDS011;25686;51.908;10.418;2024-02-16T07:52:06;3.00;;;1.50;;
39994;SDS011;25686;51.908;10.418;2024-02-16T07:54:07;3.85;;;1.65;;
39994;SDS011;25686;51.908;10.418;2024-02-16T07:56:08;4.05;;;1.70;;
39994;SDS011;25686;51.908;10.418;2024-02-16T07:58:09;3.22;;;1.80;;
39994;SDS011;25686;51.908;10.418;2024-02-16T08:00:10;3.67;;;1.55;;
39994;SDS011;25686;51.908;10.418;2024-02-16T08:02:12;3.30;;;1.80;;
39994;SDS011;25686;51.908;10.418;2024-02-16T08:04:15;3.13;;;1.50;;
39994;SDS011;25686;51.908;10.418;2024-02-16T08:06:16;3.58;;;1.60;;
39994;SDS011;25686;51.908;10.418;2024-02-16T08:08:21;4.05;;;1.70;;
39994;SDS011;25686;51.908;10.418;2024-02-16T08:10:23;5.70;;;1.55;;
39994;SDS011;25686;51.908;10.418;2024-02-16T08:12:25;3.00;;;1.60;;
39994;SDS011;25686;51.908;10.418;2024-02-16T08:14:28;4.28;;;1.50;;
39994;SDS011;25686;51.908;10.418;2024-02-16T08:16:29;6.88;;;1.80;;
39994;SDS011;25686;51.908;10.418;2024-02-16T08:18:30;6.03;;;1.85;;
39994;SDS011;25686;51.908;10.418;2024-02-16T08:20:30;2.67;;;1.48;;
39994;SDS011;25686;51.908;10.418;2024-02-16T08:22:32;3.20;;;1.55;;
39994;SDS011;25686;51.908;10.418;2024-02-16T08:24:36;2.25;;;1.40;;
39994;SDS011;25686;51.908;10.418;2024-02-16T08:26:38;2.55;;;1.50;;
39994;SDS011;25686;51.908;10.418;2024-02-16T08:28:39;3.50;;;1.50;;
39994;SDS011;25686;51.908;10.418;2024-02-16T08:30:40;4.57;;;1.40;;
39994;SDS011;25686;51.908;10.418;2024-02-16T08:32:44;4.55;;;1.40;;
39994;SDS011;25686;51.908;10.418;2024-02-16T08:34:44;4.80;;;1.73;;
39994;SDS011;25686;51.908;10.418;2024-02-16T08:36:48;3.63;;;1.58;;
39994;SDS011;25686;51.908;10.418;2024-02-16T08:38:50;2.50;;;1.58;;
39994;SDS011;25686;51.908;10.418;2024-02-16T08:40:50;5.15;;;1.50;;
39994;SDS011;25686;51.908;10.418;2024-02-16T08:42:52;2.47;;;1.42;;
39994;SDS011;25686;51.908;10.418;2024-02-16T08:44:52;5.13;;;1.40;;
39994;SDS011;25686;51.908;10.418;2024-02-16T08:46:53;2.53;;;1.48;;
39994;SDS011;25686;51.908;10.418;2024-02-16T08:48:55;2.83;;;1.50;;
39994;SDS011;25686;51.908;10.418;2024-02-16T08:50:55;2.42;;;1.45;;
39994;SDS011;25686;51.908;10.418;2024-02-16T08:52:57;3.30;;;1.60;;
39994;SDS011;25686;51.908;10.418;2024-02-16T08:54:57;2.72;;;1.40;;
39994;SDS011;25686;51.908;10.418;2024-02-16T08:56:58;3.03;;;1.42;;
39994;SDS011;25686;51.908;10.418;2024-02-16T08:58:59;4.30;;;1.67;;
39994;SDS011;25686;51.908;10.418;2024-02-16T09:01:00;2.75;;;1.60;;
39994;SDS011;25686;51.908;10.418;2024-02-16T09:03:01;2.75;;;1.50;;
39994;SDS011;25686;51.908;10.418;2024-02-16T09:05:02;4.03;;;1.85;;
39994;SDS011;25686;51.908;10.418;2024-02-16T09:07:03;2.55;;;1.50;;
39994;SDS011;25686;51.908;10.418;2024-02-16T09:09:04;3.35;;;1.60;;
39994;SDS011;25686;51.908;10.418;2024-02-16T09:11:07;4.22;;;1.80;;
39994;SDS011;25686;51.908;10.418;2024-02-16T09:13:08;2.78;;;1.45;;
39994;SDS011;25686;51.908;10.418;2024-02-16T09:15:09;5.45;;;1.88;;
39994;SDS011;25686;51.908;10.418;2024-02-16T09:17:11;4.13;;;1.95;;
39994;SDS011;25686;51.908;10.418;2024-02-16T09:19:13;5.10;;;1.70;;
39994;SDS011;25686;51.908;10.418;2024-02-16T09:21:14;3.40;;;1.67;;
39994;SDS011;25686;51.908;10.418;2024-02-16T09:23:15;4.07;;;1.70;;
39994;SDS011;25686;51.908;10.418;2024-02-16T09:25:16;3.00;;;1.60;;
39994;SDS011;25686;51.908;10.418;2024-02-16T09:27:17;2.63;;;1.52;;
39994;SDS011;25686;51.908;10.418;2024-02-16T09:29:19;3.40;;;1.50;;
39994;SDS011;25686;51.908;10.418;2024-02-16T09:31:20;3.80;;;1.88;;
39994;SDS011;25686;51.908;10.418;2024-02-16T09:33:21;3.40;;;1.67;;
39994;SDS011;25686;51.908;10.418;2024-02-16T09:35:22;5.90;;;1.58;;
39994;SDS011;25686;51.908;10.418;2024-02-16T09:37:23;4.00;;;1.80;;
39994;SDS011;25686;51.908;10.418;2024-02-16T09:39:24;5.13;;;1.80;;
39994;SDS011;25686;51.908;10.418;2024-02-16T09:41:27;3.03;;;1.50;;
39994;SDS011;25686;51.908;10.418;2024-02-16T09:43:29;4.82;;;1.50;;
39994;SDS011;25686;51.908;10.418;2024-02-16T09:45:30;1.95;;;1.42;;
39994;SDS011;25686;51.908;10.418;2024-02-16T09:47:31;5.75;;;1.58;;
39994;SDS011;25686;51.908;10.418;2024-02-16T09:49:34;4.93;;;1.80;;
39994;SDS011;25686;51.908;10.418;2024-02-16T09:51:35;8.48;;;1.83;;
39994;SDS011;25686;51.908;10.418;2024-02-16T09:53:37;3.22;;;1.60;;
39994;SDS011;25686;51.908;10.418;2024-02-16T09:55:38;3.55;;;1.98;;
39994;SDS011;25686;51.908;10.418;2024-02-16T09:57:39;3.60;;;1.70;;
39994;SDS011;25686;51.908;10.418;2024-02-16T09:59:40;7.70;;;2.05;;
39994;SDS011;25686;51.908;10.418;2024-02-16T10:01:41;4.43;;;2.00;;
39994;SDS011;25686;51.908;10.418;2024-02-16T10:03:43;2.88;;;1.83;;
39994;SDS011;25686;51.908;10.418;2024-02-16T10:05:44;2.95;;;1.90;;
39994;SDS011;25686;51.908;10.418;2024-02-16T10:07:45;4.22;;;1.80;;
39994;SDS011;25686;51.908;10.418;2024-02-16T10:09:47;4.82;;;2.20;;
39994;SDS011;25686;51.908;10.418;2024-02-16T10:11:47;4.75;;;2.03;;
39994;SDS011;25686;51.908;10.418;2024-02-16T10:13:58;2.80;;;1.50;;
39994;SDS011;25686;51.908;10.418;2024-02-16T10:16:10;3.40;;;1.80;;
39994;SDS011;25686;51.908;10.418;2024-02-16T10:18:11;4.88;;;1.80;;
39994;SDS011;25686;51.908;10.418;2024-02-16T10:20:17;4.90;;;1.83;;
39994;SDS011;25686;51.908;10.418;2024-02-16T10:22:18;3.38;;;1.70;;
39994;SDS011;25686;51.908;10.418;2024-02-16T10:24:23;4.63;;;1.70;;
39994;SDS011;25686;51.908;10.418;2024-02-16T10:26:24;4.35;;;1.67;;
39994;SDS011;25686;51.908;10.418;2024-02-16T10:28:25;5.13;;;1.95;;
39994;SDS011;25686;51.908;10.418;2024-02-16T10:30:31;2.42;;;1.80;;
39994;SDS011;25686;51.908;10.418;2024-02-16T10:32:35;5.53;;;1.70;;
39994;SDS011;25686;51.908;10.418;2024-02-16T10:34:36;4.70;;;1.95;;
39994;SDS011;25686;51.908;10.418;2024-02-16T10:36:38;4.95;;;1.90;;
39994;SDS011;25686;51.908;10.418;2024-02-16T10:38:39;2.58;;;1.63;;
39994;SDS011;25686;51.908;10.418;2024-02-16T10:40:42;2.22;;;1.60;;
39994;SDS011;25686;51.908;10.418;2024-02-16T10:42:45;3.50;;;1.80;;
39994;SDS011;25686;51.908;10.418;2024-02-16T10:44:46;3.65;;;2.08;;
39994;SDS011;25686;51.908;10.418;2024-02-16T10:46:47;3.95;;;2.00;;
39994;SDS011;25686;51.908;10.418;2024-02-16T10:48:48;3.90;;;1.80;;
39994;SDS011;25686;51.908;10.418;2024-02-16T10:50:49;3.92;;;2.00;;
39994;SDS011;25686;51.908;10.418;2024-02-16T10:52:52;3.25;;;2.10;;
39994;SDS011;25686;51.908;10.418;2024-02-16T10:54:54;4.57;;;2.10;;
39994;SDS011;25686;51.908;10.418;2024-02-16T10:56:55;3.85;;;2.00;;
39994;SDS011;25686;51.908;10.418;2024-02-16T10:58:56;5.65;;;1.80;;
39994;SDS011;25686;51.908;10.418;2024-02-16T11:01:07;4.28;;;2.10;;
39994;SDS011;25686;51.908;10.418;2024-02-16T11:03:08;5.00;;;2.22;;
39994;SDS011;25686;51.908;10.418;2024-02-16T11:05:09;3.35;;;1.70;;
39994;SDS011;25686;51.908;10.418;2024-02-16T11:07:11;5.45;;;1.90;;
39994;SDS011;25686;51.908;10.418;2024-02-16T11:09:33;3.20;;;1.95;;
39994;SDS011;25686;51.908;10.418;2024-02-16T11:11:35;5.07;;;1.90;;
39994;SDS011;25686;51.908;10.418;2024-02-16T11:13:37;3.38;;;1.73;;
39994;SDS011;25686;51.908;10.418;2024-02-16T11:15:39;4.55;;;1.75;;
39994;SDS011;25686;51.908;10.418;2024-02-16T11:17:40;3.50;;;1.83;;
39994;SDS011;25686;51.908;10.418;2024-02-16T11:19:44;3.33;;;1.60;;
39994;SDS011;25686;51.908;10.418;2024-02-16T11:21:56;3.60;;;1.75;;
39994;SDS011;25686;51.908;10.418;2024-02-16T11:24:03;5.32;;;1.58;;
39994;SDS011;25686;51.908;10.418;2024-02-16T11:26:11;3.30;;;1.60;;
39994;SDS011;25686;51.908;10.418;2024-02-16T11:28:13;3.58;;;1.70;;
39994;SDS011;25686;51.908;10.418;2024-02-16T11:30:14;2.83;;;1.88;;
39994;SDS011;25686;51.908;10.418;2024-02-16T11:32:15;4.75;;;1.75;;
39994;SDS011;25686;51.908;10.418;2024-02-16T11:34:25;3.65;;;1.60;;
39994;SDS011;25686;51.908;10.418;2024-02-16T11:36:26;3.92;;;1.80;;
39994;SDS011;25686;51.908;10.418;2024-02-16T11:38:27;3.35;;;1.50;;
39994;SDS011;25686;51.908;10.418;2024-02-16T11:40:31;3.60;;;1.77;;
39994;SDS011;25686;51.908;10.418;2024-02-16T11:42:32;4.35;;;1.70;;
39994;SDS011;25686;51.908;10.418;2024-02-16T11:44:35;5.45;;;2.20;;
39994;SDS011;25686;51.908;10.418;2024-02-16T11:46:36;6.43;;;1.48;;
39994;SDS011;25686;51.908;10.418;2024-02-16T11:48:38;4.70;;;1.80;;
39994;SDS011;25686;51.908;10.418;2024-02-16T11:50:39;6.72;;;1.65;;
39994;SDS011;25686;51.908;10.418;2024-02-16T11:52:40;4.68;;;2.00;;
39994;SDS011;25686;51.908;10.418;2024-02-16T11:54:43;5.40;;;2.00;;
39994;SDS011;25686;51.908;10.418;2024-02-16T11:56:45;3.90;;;1.80;;
39994;SDS011;25686;51.908;10.418;2024-02-16T11:58:46;4.30;;;2.03;;
39994;SDS011;25686;51.908;10.418;2024-02-16T12:00:47;5.00;;;1.70;;